Terminal Aerodrome Forecast
Issued by NWS Goodland, KS

Home | Current Version | Previous Version | Text Only | Print | Product List | Glossary On
Versions: 1 2 3 4 5 6 7 8 9 10 11 12 13 14 15 16 17 18 19 20 21 22 23 24 25 26
000
FTUS43 KGLD 230546
TAFGLD
TAF
KGLD 230546Z 2306/2406 22018G28KT P6SM VCTS SCT050CB BKN150
     FM230800 33019G29KT P6SM SCT035
     FM231200 35010KT P6SM SCT250
     FM232000 08007KT P6SM FEW250
     FM240000 10007KT P6SM VCTS SCT060CB=

USA.gov is the U.S. government's official web portal to all federal, state and local government web resources and services.